Time;durP1;ratioP1;P1;durP2;ratioP2;P2;SDS_P1;SDS_P2;PMS_P1;PMS_P2;Temp;Humidity;BMP_temperature;BMP_pressure;BME280_temperature;BME280_humidity;BME280_pressure;Samples;Min_cycle;Max_cycle;Signal;HPM_P1;HPM_P2
2022/06/13 00:01:34;;;;;;;13.48;4.82;;;;;;;;;;4955657;28;20142;-75
2022/06/13 00:04:00;;;;;;;14.73;4.95;;;;;;;;;;4943732;28;20050;-69
2022/06/13 00:06:27;;;;;;;13.90;5.22;;;;;;;;;;4956151;28;20046;-69
2022/06/13 00:08:53;;;;;;;12.10;4.47;;;;;;;;;;4955329;28;20055;-69
2022/06/13 00:11:21;;;;;;;12.27;4.78;;;;;;;;;;4953903;28;20034;-69
2022/06/13 00:13:48;;;;;;;14.65;5.47;;;;;;;;;;4952649;28;20054;-69
2022/06/13 00:16:14;;;;;;;12.73;5.22;;;;;;;;;;4955846;28;20038;-69
2022/06/13 00:18:47;;;;;;;13.90;5.13;;;;;;;;;;4955830;28;20086;-69
2022/06/13 00:21:13;;;;;;;15.32;5.50;;;;;;;;;;4955337;28;20121;-69
2022/06/13 00:23:39;;;;;;;11.95;5.25;;;;;;;;;;4955521;28;20483;-69
2022/06/13 00:26:05;;;;;;;15.82;5.90;;;;;;;;;;4972872;28;20563;-75
2022/06/13 00:28:31;;;;;;;14.30;6.10;;;;;;;;;;4955931;28;20391;-75
2022/06/13 00:30:58;;;;;;;13.65;4.93;;;;;;;;;;4955743;28;20035;-75
2022/06/13 00:33:24;;;;;;;17.65;5.93;;;;;;;;;;4972550;28;20423;-69
2022/06/13 00:35:50;;;;;;;12.15;5.88;;;;;;;;;;4956022;28;20081;-69
2022/06/13 00:38:16;;;;;;;19.35;5.78;;;;;;;;;;4955547;28;20046;-69
2022/06/13 00:40:42;;;;;;;16.02;6.25;;;;;;;;;;4955804;28;20514;-75
2022/06/13 00:43:10;;;;;;;15.75;5.90;;;;;;;;;;4972040;28;20130;-75
2022/06/13 00:45:37;;;;;;;17.65;5.68;;;;;;;;;;4972797;28;20042;-75
2022/06/13 00:48:03;;;;;;;16.58;5.07;;;;;;;;;;4972770;28;20054;-69
2022/06/13 00:50:32;;;;;;;16.48;5.50;;;;;;;;;;4939991;28;20043;-75
2022/06/13 00:53:18;;;;;;;15.68;5.65;;;;;;;;;;4972408;28;20039;-75
2022/06/13 00:55:44;;;;;;;;;;;;;;;;;;4962365;28;20503;-75
2022/06/13 00:58:10;;;;;;;17.48;5.20;;;;;;;;;;4955366;28;19922;-75
2022/06/13 01:00:37;;;;;;;19.23;6.05;;;;;;;;;;4955518;28;20043;-75
2022/06/13 01:03:04;;;;;;;17.70;5.72;;;;;;;;;;4955093;28;20125;-75
2022/06/13 01:05:33;;;;;;;16.38;5.38;;;;;;;;;;4954785;28;20084;-69
2022/06/13 01:08:01;;;;;;;14.98;5.80;;;;;;;;;;4954916;28;20049;-69
2022/06/13 01:13:13;;;;;;;15.50;5.50;;;;;;;;;;4950687;28;20046;-74
2022/06/13 01:15:50;;;;;;;13.63;5.75;;;;;;;;;;4958642;28;20054;-75
2022/06/13 01:18:19;;;;;;;13.98;5.97;;;;;;;;;;4975679;28;20042;-69
2022/06/13 01:20:54;;;;;;;19.88;6.70;;;;;;;;;;4976532;28;20038;-75
2022/06/13 01:23:53;;;;;;;14.88;5.65;;;;;;;;;;4958908;28;20505;-75
2022/06/13 01:26:28;;;;;;;14.73;5.75;;;;;;;;;;4921112;28;20042;-75
2022/06/13 01:29:00;;;;;;;14.70;5.57;;;;;;;;;;4959146;28;20049;-75
2022/06/13 01:31:37;;;;;;;19.35;6.20;;;;;;;;;;4976179;28;20121;-75
2022/06/13 01:34:22;;;;;;;16.88;5.55;;;;;;;;;;4975412;28;20109;-75
2022/06/13 01:37:06;;;;;;;14.52;5.35;;;;;;;;;;4958104;28;20129;-75
2022/06/13 01:39:42;;;;;;;16.25;5.65;;;;;;;;;;4958651;28;20043;-75
2022/06/13 01:42:12;;;;;;;18.77;5.95;;;;;;;;;;4957936;28;20047;-75
2022/06/13 01:44:44;;;;;;;15.77;5.13;;;;;;;;;;4975662;28;20046;-75
2022/06/13 01:47:29;;;;;;;15.68;5.53;;;;;;;;;;4957573;28;20035;-69
2022/06/13 01:49:58;;;;;;;14.65;5.35;;;;;;;;;;4958615;28;20043;-69
2022/06/13 01:52:38;;;;;;;15.30;5.60;;;;;;;;;;4942303;28;20043;-75
2022/06/13 01:55:07;;;;;;;13.70;5.10;;;;;;;;;;4975832;28;20043;-75
2022/06/13 01:57:39;;;;;;;14.05;5.25;;;;;;;;;;4958004;28;20050;-75
2022/06/13 02:00:08;;;;;;;16.13;5.32;;;;;;;;;;4958810;28;20046;-75
2022/06/13 02:02:35;;;;;;;17.00;5.20;;;;;;;;;;4947451;28;20046;-69
2022/06/13 02:05:34;;;;;;;11.45;4.47;;;;;;;;;;4948899;28;20050;-69
2022/06/13 02:08:09;;;;;;;9.25;4.72;;;;;;;;;;4913500;28;20051;-69
2022/06/13 02:10:39;;;;;;;17.60;5.85;;;;;;;;;;4958228;28;20053;-69
2022/06/13 02:13:07;;;;;;;14.25;4.82;;;;;;;;;;4975139;28;20034;-69
2022/06/13 02:15:36;;;;;;;15.10;5.38;;;;;;;;;;4975072;28;20419;-69
2022/06/13 02:18:04;;;;;;;13.32;4.88;;;;;;;;;;4957170;28;20038;-69
2022/06/13 02:20:37;;;;;;;12.15;4.97;;;;;;;;;;4957701;28;20447;-69
2022/06/13 02:23:06;;;;;;;14.52;5.10;;;;;;;;;;4956855;28;20124;-75
2022/06/13 02:25:43;;;;;;;11.68;4.88;;;;;;;;;;4974755;28;20121;-75
2022/06/13 02:28:10;;;;;;;10.98;4.70;;;;;;;;;;4956974;28;20118;-75
2022/06/13 02:30:38;;;;;;;10.68;4.95;;;;;;;;;;4975212;28;20133;-75
2022/06/13 02:33:07;;;;;;;12.35;4.78;;;;;;;;;;4957476;28;20046;-69
2022/06/13 02:35:39;;;;;;;12.85;4.85;;;;;;;;;;4957255;28;20051;-69
2022/06/13 02:38:13;;;;;;;9.57;4.78;;;;;;;;;;4957281;28;20131;-75
2022/06/13 02:40:44;;;;;;;14.93;5.30;;;;;;;;;;4953182;28;20046;-75
2022/06/13 02:43:10;;;;;;;14.75;4.85;;;;;;;;;;4974651;28;20499;-75
2022/06/13 02:45:39;;;;;;;10.55;4.68;;;;;;;;;;4957559;28;20049;-75
2022/06/13 02:48:22;;;;;;;13.48;4.72;;;;;;;;;;4974498;28;20396;-69
2022/06/13 02:51:11;;;;;;;12.05;4.90;;;;;;;;;;4950547;28;20102;-69
2022/06/13 02:53:46;;;;;;;15.57;4.95;;;;;;;;;;4956890;28;20050;-69
2022/06/13 02:56:24;;;;;;;11.25;4.43;;;;;;;;;;4957382;28;20051;-69
2022/06/13 02:59:09;;;;;;;15.02;4.97;;;;;;;;;;4974152;28;20054;-69
2022/06/13 03:01:37;;;;;;;13.75;4.90;;;;;;;;;;4974029;28;20031;-75
2022/06/13 03:04:07;;;;;;;13.02;4.53;;;;;;;;;;4956880;28;20035;-75
2022/06/13 03:06:40;;;;;;;12.40;4.40;;;;;;;;;;4940601;28;20117;-69
2022/06/13 03:09:16;;;;;;;10.90;4.63;;;;;;;;;;4956679;28;20043;-69
2022/06/13 03:11:51;;;;;;;10.82;4.05;;;;;;;;;;4956701;28;20043;-69
2022/06/13 03:14:17;;;;;;;11.32;4.15;;;;;;;;;;4956168;28;20042;-69
2022/06/13 03:16:47;;;;;;;10.50;3.85;;;;;;;;;;4974185;28;20047;-69
2022/06/13 03:19:15;;;;;;;12.88;3.95;;;;;;;;;;4956950;28;20495;-70
2022/06/13 03:21:45;;;;;;;12.43;4.07;;;;;;;;;;4940269;28;20046;-69
2022/06/13 03:24:17;;;;;;;11.00;4.40;;;;;;;;;;4956767;28;20051;-69
2022/06/13 03:26:48;;;;;;;14.45;3.67;;;;;;;;;;4956630;28;20511;-69
2022/06/13 03:29:27;;;;;;;11.75;3.47;;;;;;;;;;4956613;28;20069;-69
2022/06/13 03:31:56;;;;;;;11.43;3.30;;;;;;;;;;4956295;28;20046;-69
2022/06/13 03:34:25;;;;;;;9.82;3.35;;;;;;;;;;4956130;28;20042;-75
2022/06/13 03:36:54;;;;;;;9.52;3.05;;;;;;;;;;4956418;28;20038;-75
2022/06/13 03:39:22;;;;;;;10.30;3.10;;;;;;;;;;4940604;28;20054;-75
2022/06/13 03:41:56;;;;;;;9.60;3.10;;;;;;;;;;4955858;28;20492;-75
2022/06/13 03:44:22;;;;;;;9.20;3.33;;;;;;;;;;4939718;28;20464;-75
2022/06/13 03:46:54;;;;;;;7.82;3.30;;;;;;;;;;4956405;28;20043;-75
2022/06/13 03:49:24;;;;;;;10.35;3.05;;;;;;;;;;4956193;28;20049;-75
2022/06/13 03:51:52;;;;;;;11.60;3.22;;;;;;;;;;4955830;28;20094;-75
2022/06/13 03:54:21;;;;;;;10.73;3.30;;;;;;;;;;4956139;28;20034;-75
2022/06/13 03:56:59;;;;;;;8.68;3.00;;;;;;;;;;4956575;28;20470;-75
2022/06/13 03:59:34;;;;;;;9.38;2.90;;;;;;;;;;4925008;29;20119;-75
2022/06/13 04:02:03;;;;;;;10.55;3.00;;;;;;;;;;4941078;28;20126;-75
2022/06/13 04:04:45;;;;;;;7.80;2.63;;;;;;;;;;4948234;28;20042;-74
2022/06/13 04:07:11;;;;;;;7.95;2.85;;;;;;;;;;4973079;28;20113;-75
2022/06/13 04:09:40;;;;;;;7.30;2.95;;;;;;;;;;4955740;28;20053;-75
2022/06/13 04:12:20;;;;;;;8.35;2.60;;;;;;;;;;4955815;28;20039;-75
2022/06/13 04:14:49;;;;;;;10.38;3.20;;;;;;;;;;4945233;28;20129;-75
2022/06/13 04:17:21;;;;;;;7.47;3.25;;;;;;;;;;4955780;28;20046;-75
2022/06/13 04:19:47;;;;;;;11.80;2.92;;;;;;;;;;4955896;28;20526;-75
2022/06/13 04:22:19;;;;;;;10.07;3.28;;;;;;;;;;4973316;28;20495;-75
2022/06/13 04:24:55;;;;;;;9.20;3.00;;;;;;;;;;4954666;28;20042;-75
2022/06/13 04:27:23;;;;;;;6.93;2.50;;;;;;;;;;4955662;28;20050;-75
2022/06/13 04:30:16;;;;;;;6.63;2.70;;;;;;;;;;4956396;28;20039;-75
2022/06/13 04:32:45;;;;;;;8.00;2.42;;;;;;;;;;4969945;28;20415;-75
2022/06/13 04:35:12;;;;;;;8.50;2.38;;;;;;;;;;4955192;28;20101;-75
2022/06/13 04:37:39;;;;;;;9.00;2.45;;;;;;;;;;4972798;28;20504;-75
2022/06/13 04:40:06;;;;;;;8.02;2.80;;;;;;;;;;4955768;28;20042;-75
2022/06/13 04:42:34;;;;;;;6.60;2.47;;;;;;;;;;4947285;29;20043;-75
2022/06/13 04:45:04;;;;;;;6.47;2.22;;;;;;;;;;4950576;28;20050;-70
2022/06/13 04:47:30;;;;;;;7.40;2.60;;;;;;;;;;4957336;28;20047;-70
2022/06/13 04:49:57;;;;;;;6.75;2.42;;;;;;;;;;4959752;28;20143;-70
2022/06/13 04:52:26;;;;;;;9.45;2.50;;;;;;;;;;4977522;28;20109;-75
2022/06/13 04:54:55;;;;;;;10.07;2.60;;;;;;;;;;4959687;28;20574;-70
2022/06/13 04:57:22;;;;;;;9.02;2.47;;;;;;;;;;4959178;28;20094;-70
2022/06/13 04:59:48;;;;;;;9.98;2.42;;;;;;;;;;4959196;28;20049;-76
2022/06/13 05:02:17;;;;;;;8.60;2.75;;;;;;;;;;4959371;28;20050;-70
2022/06/13 05:04:43;;;;;;;6.57;2.33;;;;;;;;;;4958890;28;20125;-70
2022/06/13 05:07:14;;;;;;;6.90;2.33;;;;;;;;;;4958036;28;20117;-75
2022/06/13 05:09:42;;;;;;;7.95;2.25;;;;;;;;;;4959325;28;20517;-71
2022/06/13 05:12:08;;;;;;;7.63;2.25;;;;;;;;;;4959256;28;20073;-71
2022/06/13 05:14:44;;;;;;;9.07;2.38;;;;;;;;;;4959027;28;20414;-71
2022/06/13 05:17:29;;;;;;;5.55;2.00;;;;;;;;;;4958991;28;20054;-72
2022/06/13 05:20:04;;;;;;;4.90;2.17;;;;;;;;;;4947630;28;20043;-71
2022/06/13 05:22:49;;;;;;;6.40;1.85;;;;;;;;;;4976596;28;20071;-72
2022/06/13 05:25:27;;;;;;;7.13;1.65;;;;;;;;;;4963357;28;20055;-77
2022/06/13 05:27:54;;;;;;;5.95;1.73;;;;;;;;;;4957748;28;20042;-77
2022/06/13 05:30:20;;;;;;;8.95;1.98;;;;;;;;;;4945508;28;20042;-76
2022/06/13 05:32:46;;;;;;;8.05;1.60;;;;;;;;;;4956196;28;20043;-71
2022/06/13 05:35:18;;;;;;;5.57;1.60;;;;;;;;;;4940406;28;20030;-70
2022/06/13 05:37:44;;;;;;;7.32;1.80;;;;;;;;;;4958517;28;20054;-77
2022/06/13 05:40:17;;;;;;;5.60;1.40;;;;;;;;;;4959930;28;20045;-77
2022/06/13 05:42:45;;;;;;;6.38;1.42;;;;;;;;;;4957866;28;20058;-77
2022/06/13 05:45:12;;;;;;;5.88;1.70;;;;;;;;;;4958194;28;20543;-77
2022/06/13 05:47:38;;;;;;;5.18;1.50;;;;;;;;;;4957213;28;20404;-77
2022/06/13 05:50:04;;;;;;;5.95;1.35;;;;;;;;;;4958244;28;20043;-71
2022/06/13 05:52:30;;;;;;;4.03;1.40;;;;;;;;;;4960215;28;20050;-77
2022/06/13 05:54:56;;;;;;;4.88;1.67;;;;;;;;;;4946153;29;20039;-79
2022/06/13 05:57:23;;;;;;;4.63;1.35;;;;;;;;;;4940794;28;20507;-76
2022/06/13 05:59:49;;;;;;;6.90;1.70;;;;;;;;;;4957908;28;20057;-76
2022/06/13 06:02:16;;;;;;;8.85;1.50;;;;;;;;;;4957369;28;20047;-76
2022/06/13 06:04:42;;;;;;;5.60;1.90;;;;;;;;;;4955917;28;20055;-70
2022/06/13 06:07:08;;;;;;;8.95;1.98;;;;;;;;;;4942224;28;20046;-72
2022/06/13 06:09:34;;;;;;;4.85;1.40;;;;;;;;;;4959786;28;20081;-76
2022/06/13 06:12:01;;;;;;;6.32;1.70;;;;;;;;;;4981677;28;20039;-75
2022/06/13 06:14:27;;;;;;;8.48;2.33;;;;;;;;;;4954643;28;20499;-71
2022/06/13 06:16:53;;;;;;;6.63;1.45;;;;;;;;;;4956924;28;20055;-75
2022/06/13 06:19:19;;;;;;;8.85;1.40;;;;;;;;;;4957816;28;20045;-70
2022/06/13 06:21:45;;;;;;;11.63;1.98;;;;;;;;;;4957707;28;20042;-71
2022/06/13 06:24:11;;;;;;;16.33;2.85;;;;;;;;;;4942171;28;20039;-77
2022/06/13 06:26:37;;;;;;;10.98;2.35;;;;;;;;;;4956549;28;20045;-75
2022/06/13 06:29:04;;;;;;;11.07;1.67;;;;;;;;;;4957552;28;20054;-74
2022/06/13 06:31:30;;;;;;;5.78;1.48;;;;;;;;;;4958023;28;20121;-73
2022/06/13 06:33:56;;;;;;;4.43;1.10;;;;;;;;;;4974837;28;20047;-75
2022/06/13 06:36:22;;;;;;;2.15;0.90;;;;;;;;;;4957816;28;20042;-75
2022/06/13 06:38:48;;;;;;;2.95;0.90;;;;;;;;;;4941438;28;20089;-74
2022/06/13 06:41:14;;;;;;;3.50;1.00;;;;;;;;;;4956045;28;20502;-75
2022/06/13 06:43:41;;;;;;;3.15;0.88;;;;;;;;;;4948708;28;20109;-74
2022/06/13 06:46:08;;;;;;;3.45;0.88;;;;;;;;;;4956221;28;20053;-75
2022/06/13 06:48:36;;;;;;;3.40;0.90;;;;;;;;;;4957353;28;20491;-74
2022/06/13 06:51:05;;;;;;;3.30;0.95;;;;;;;;;;4974298;28;20042;-76
2022/06/13 06:59:53;;;;;;;7.28;1.48;;;;;;;;;;4957508;28;20045;-76
2022/06/13 07:01:46;;;;;;;3.83;1.40;;;;;;;;;;4957343;28;20491;-72
2022/06/13 07:04:12;;;;;;;4.55;1.50;;;;;;;;;;4956832;28;20035;-70
2022/06/13 07:06:38;;;;;;;4.55;1.30;;;;;;;;;;4974022;28;20499;-72
2022/06/13 07:09:05;;;;;;;4.15;1.35;;;;;;;;;;4954866;28;20047;-71
2022/06/13 07:14:16;;;;;;;5.60;1.33;;;;;;;;;;4972170;28;20046;-75
2022/06/13 07:16:42;;;;;;;6.18;1.48;;;;;;;;;;4956714;28;20047;-70
2022/06/13 07:19:09;;;;;;;7.57;1.98;;;;;;;;;;4955986;28;20051;-71
2022/06/13 07:21:35;;;;;;;5.63;1.23;;;;;;;;;;4956172;28;20086;-71
2022/06/13 07:24:01;;;;;;;5.05;1.08;;;;;;;;;;4956526;28;20035;-71
2022/06/13 07:26:27;;;;;;;4.30;1.67;;;;;;;;;;4956704;28;20050;-73
2022/06/13 07:28:53;;;;;;;3.47;1.00;;;;;;;;;;4956337;28;20189;-72
2022/06/13 07:31:20;;;;;;;4.10;1.20;;;;;;;;;;4956578;28;20546;-71
2022/06/13 07:33:48;;;;;;;5.75;1.17;;;;;;;;;;4956278;28;20134;-70
2022/06/13 07:36:14;;;;;;;3.60;1.00;;;;;;;;;;4956116;28;20043;-71
2022/06/13 07:38:40;;;;;;;4.72;1.20;;;;;;;;;;4956235;28;20068;-74
2022/06/13 07:41:06;;;;;;;4.18;0.98;;;;;;;;;;4956172;28;20396;-71
2022/06/13 07:43:35;;;;;;;4.80;1.38;;;;;;;;;;4940131;28;20531;-72
2022/06/13 07:46:04;;;;;;;5.63;1.42;;;;;;;;;;4940372;28;20496;-76
2022/06/13 07:48:31;;;;;;;6.07;1.02;;;;;;;;;;4956416;28;20052;-76
2022/06/13 07:50:58;;;;;;;3.78;1.08;;;;;;;;;;4955847;28;20059;-76
2022/06/13 07:53:24;;;;;;;4.93;1.30;;;;;;;;;;4956183;28;20105;-78
2022/06/13 07:55:50;;;;;;;7.50;1.30;;;;;;;;;;4943202;28;20411;-76
2022/06/13 07:58:18;;;;;;;7.63;1.40;;;;;;;;;;4956354;28;20562;-77
2022/06/13 08:00:44;;;;;;;4.43;0.98;;;;;;;;;;4955671;28;20113;-72
2022/06/13 08:03:15;;;;;;;5.55;1.27;;;;;;;;;;4945889;29;20035;-71
2022/06/13 08:05:42;;;;;;;5.65;1.13;;;;;;;;;;4972517;28;20113;-80
2022/06/13 08:08:08;;;;;;;4.85;1.17;;;;;;;;;;4956297;28;20050;-75
2022/06/13 08:10:34;;;;;;;6.15;1.08;;;;;;;;;;4955320;28;20373;-73
2022/06/13 08:13:00;;;;;;;5.50;1.27;;;;;;;;;;4951280;28;20177;-81
2022/06/13 08:15:26;;;;;;;5.18;1.20;;;;;;;;;;4953376;28;20039;-81
2022/06/13 08:17:52;;;;;;;5.38;1.00;;;;;;;;;;4955908;28;20491;-79
2022/06/13 08:20:18;;;;;;;7.15;1.17;;;;;;;;;;4955590;28;20038;-85
2022/06/13 08:22:46;;;;;;;5.13;0.93;;;;;;;;;;4955661;28;20073;-80
2022/06/13 08:25:27;;;;;;;5.85;1.10;;;;;;;;;;4969024;28;20045;-84
2022/06/13 08:27:54;;;;;;;4.10;1.02;;;;;;;;;;4955704;28;20078;-83
2022/06/13 08:30:20;;;;;;;4.63;1.15;;;;;;;;;;4954382;28;20046;-80
2022/06/13 08:32:46;;;;;;;5.90;1.20;;;;;;;;;;4932741;28;20480;-81
2022/06/13 08:35:14;;;;;;;3.67;0.93;;;;;;;;;;4942236;28;20038;-80
2022/06/13 08:37:40;;;;;;;4.18;1.17;;;;;;;;;;4955632;28;20150;-73
2022/06/13 08:40:06;;;;;;;6.25;1.30;;;;;;;;;;4946553;28;20047;-72
2022/06/13 08:42:39;;;;;;;6.18;1.13;;;;;;;;;;4948673;28;20078;-85
2022/06/13 08:45:20;;;;;;;3.85;1.00;;;;;;;;;;4955300;28;20459;-83
2022/06/13 08:48:02;;;;;;;5.30;1.00;;;;;;;;;;4969013;28;20039;-73
2022/06/13 08:50:35;;;;;;;5.30;1.20;;;;;;;;;;4935713;28;20106;-74
2022/06/13 08:53:04;;;;;;;5.32;1.20;;;;;;;;;;4955329;28;20035;-74
2022/06/13 08:55:30;;;;;;;7.03;1.20;;;;;;;;;;4954637;28;20042;-84
2022/06/13 08:58:02;;;;;;;5.68;1.08;;;;;;;;;;4956041;28;20487;-74
2022/06/13 09:00:30;;;;;;;8.05;1.50;;;;;;;;;;4972824;28;20053;-72
2022/06/13 09:03:01;;;;;;;4.50;1.08;;;;;;;;;;4955271;28;20098;-72
2022/06/13 09:05:50;;;;;;;5.88;0.90;;;;;;;;;;4955293;28;20519;-74
2022/06/13 09:08:23;;;;;;;3.50;0.95;;;;;;;;;;4947750;28;20224;-73
2022/06/13 09:10:59;;;;;;;6.20;1.13;;;;;;;;;;4939175;28;20125;-76
2022/06/13 09:13:30;;;;;;;5.13;1.05;;;;;;;;;;4955054;28;20054;-73
2022/06/13 09:16:07;;;;;;;4.20;1.23;;;;;;;;;;4936438;28;20476;-73
2022/06/13 09:18:37;;;;;;;5.32;1.38;;;;;;;;;;4955350;28;20070;-76
2022/06/13 09:21:14;;;;;;;4.82;1.13;;;;;;;;;;4938530;28;20138;-72
2022/06/13 09:23:44;;;;;;;5.28;0.93;;;;;;;;;;4933448;28;20542;-84
2022/06/13 09:26:19;;;;;;;3.42;1.00;;;;;;;;;;4954910;28;20035;-80
2022/06/13 09:28:49;;;;;;;3.83;0.95;;;;;;;;;;4943426;28;20058;-77
2022/06/13 09:31:24;;;;;;;6.15;1.10;;;;;;;;;;4954495;28;20077;-73
2022/06/13 09:33:52;;;;;;;5.47;1.10;;;;;;;;;;4962394;28;20046;-71
2022/06/13 09:36:25;;;;;;;4.65;1.00;;;;;;;;;;4958278;28;20137;-71
2022/06/13 09:39:03;;;;;;;6.10;1.20;;;;;;;;;;4962251;28;20446;-73
2022/06/13 09:41:39;;;;;;;5.00;1.30;;;;;;;;;;4958219;28;20051;-73
2022/06/13 09:44:05;;;;;;;3.20;1.10;;;;;;;;;;4946639;28;20050;-79
2022/06/13 09:46:45;;;;;;;8.23;1.10;;;;;;;;;;4942812;28;20451;-77
2022/06/13 09:49:36;;;;;;;5.72;1.23;;;;;;;;;;4946408;28;20050;-81
2022/06/13 09:52:15;;;;;;;5.93;1.08;;;;;;;;;;4955827;28;20042;-78
2022/06/13 09:54:41;;;;;;;6.28;1.10;;;;;;;;;;4958468;28;20038;-77
2022/06/13 09:57:13;;;;;;;6.18;1.20;;;;;;;;;;4958517;28;20051;-80
2022/06/13 09:59:52;;;;;;;3.65;1.10;;;;;;;;;;4958932;28;20050;-76
2022/06/13 10:02:25;;;;;;;5.72;1.40;;;;;;;;;;4957693;28;20039;-77
2022/06/13 10:05:02;;;;;;;6.70;1.23;;;;;;;;;;4958266;28;20034;-74
2022/06/13 10:07:35;;;;;;;6.53;1.20;;;;;;;;;;4941249;28;20053;-79
2022/06/13 10:10:07;;;;;;;5.85;1.58;;;;;;;;;;4958530;28;20070;-76
2022/06/13 10:12:45;;;;;;;9.70;1.17;;;;;;;;;;4954955;28;20109;-79
2022/06/13 10:15:12;;;;;;;7.53;1.30;;;;;;;;;;4942584;28;20053;-76
2022/06/13 10:17:49;;;;;;;6.85;1.30;;;;;;;;;;4957872;28;20122;-78
2022/06/13 10:20:34;;;;;;;7.00;1.10;;;;;;;;;;4957792;28;20078;-75
2022/06/13 10:23:06;;;;;;;5.70;1.50;;;;;;;;;;4974797;28;20039;-74
2022/06/13 10:25:45;;;;;;;7.20;1.35;;;;;;;;;;4976154;28;20039;-82
2022/06/13 10:28:26;;;;;;;6.45;1.42;;;;;;;;;;4975493;28;20488;-81
2022/06/13 10:31:01;;;;;;;9.57;1.40;;;;;;;;;;4943143;28;20039;-73
2022/06/13 10:33:28;;;;;;;7.28;1.38;;;;;;;;;;4957957;28;20457;-72
2022/06/13 10:36:12;;;;;;;6.25;1.83;;;;;;;;;;4975119;28;20065;-76
2022/06/13 10:38:41;;;;;;;5.18;1.13;;;;;;;;;;4957106;28;20046;-79
2022/06/13 10:41:08;;;;;;;6.90;1.40;;;;;;;;;;4975784;28;20043;-78
2022/06/13 10:43:35;;;;;;;5.55;1.50;;;;;;;;;;4958081;28;20038;-79
2022/06/13 10:46:01;;;;;;;4.63;1.10;;;;;;;;;;4958221;28;20455;-81
2022/06/13 10:48:30;;;;;;;6.70;1.30;;;;;;;;;;4957134;28;20045;-82
2022/06/13 10:50:58;;;;;;;7.13;1.40;;;;;;;;;;4957699;28;20052;-80
2022/06/13 10:53:24;;;;;;;5.82;1.30;;;;;;;;;;4957326;28;20109;-78
2022/06/13 10:55:52;;;;;;;6.60;1.30;;;;;;;;;;4959053;28;20039;-79
2022/06/13 10:58:21;;;;;;;6.25;1.30;;;;;;;;;;4962937;28;20039;-80
2022/06/13 11:01:11;;;;;;;7.13;1.23;;;;;;;;;;4954802;28;20078;-80
2022/06/13 11:03:40;;;;;;;4.47;1.10;;;;;;;;;;4941868;28;20054;-82
2022/06/13 11:06:13;;;;;;;6.38;1.67;;;;;;;;;;4941850;28;20491;-74
2022/06/13 11:08:39;;;;;;;4.70;1.20;;;;;;;;;;4973993;28;20404;-73
2022/06/13 11:11:16;;;;;;;7.43;1.40;;;;;;;;;;4941072;28;20043;-74
2022/06/13 11:13:43;;;;;;;9.65;1.38;;;;;;;;;;4941173;28;20042;-74
2022/06/13 11:24:42;;;;;;;6.47;1.40;;;;;;;;;;4956910;28;20050;-73
2022/06/13 11:30:23;;;;;;;3.43;1.10;;;;;;;;;;4956315;28;20082;-80
2022/06/13 11:33:15;;;;;;;6.20;1.10;;;;;;;;;;4940982;28;20055;-79
2022/06/13 11:36:00;;;;;;;6.32;1.40;;;;;;;;;;4929687;28;20506;-74
2022/06/13 11:38:29;;;;;;;8.50;1.50;;;;;;;;;;4956480;28;20057;-74
2022/06/13 11:40:56;;;;;;;5.68;1.40;;;;;;;;;;4945859;28;20042;-74
2022/06/13 11:43:30;;;;;;;6.82;1.30;;;;;;;;;;4943184;28;20050;-74
2022/06/13 11:45:58;;;;;;;4.72;1.33;;;;;;;;;;4935304;28;20050;-72
2022/06/13 11:48:25;;;;;;;4.50;1.13;;;;;;;;;;4956363;28;20380;-75
2022/06/13 11:50:55;;;;;;;5.68;1.13;;;;;;;;;;4956411;28;20480;-74
2022/06/13 11:53:37;;;;;;;6.15;1.77;;;;;;;;;;4940492;28;20492;-75
2022/06/13 11:56:11;;;;;;;7.95;1.20;;;;;;;;;;4942490;28;20112;-74
2022/06/13 11:58:45;;;;;;;7.88;1.52;;;;;;;;;;4956077;28;20092;-73
2022/06/13 12:01:15;;;;;;;7.22;1.40;;;;;;;;;;4955944;28;20041;-76
2022/06/13 12:03:49;;;;;;;6.28;1.20;;;;;;;;;;4973056;28;20054;-73
2022/06/13 12:06:17;;;;;;;6.45;1.20;;;;;;;;;;4956305;28;20098;-73
2022/06/13 12:08:48;;;;;;;6.97;1.20;;;;;;;;;;4955441;28;20042;-75
2022/06/13 12:11:14;;;;;;;7.88;1.25;;;;;;;;;;4940467;28;20085;-76
2022/06/13 12:13:42;;;;;;;4.95;1.10;;;;;;;;;;4955905;28;20042;-77
2022/06/13 12:16:20;;;;;;;7.90;1.40;;;;;;;;;;4956288;28;20058;-74
2022/06/13 12:19:04;;;;;;;4.47;0.90;;;;;;;;;;4955522;28;20042;-74
2022/06/13 12:21:33;;;;;;;6.13;1.20;;;;;;;;;;4934558;29;20057;-74
2022/06/13 12:24:10;;;;;;;3.92;1.27;;;;;;;;;;4953652;28;20043;-77
2022/06/13 12:26:38;;;;;;;4.60;1.20;;;;;;;;;;4940551;28;20043;-78
2022/06/13 12:29:23;;;;;;;6.05;1.30;;;;;;;;;;4956529;28;20042;-75
2022/06/13 12:31:49;;;;;;;6.60;1.27;;;;;;;;;;4973235;28;20491;-75
2022/06/13 12:34:20;;;;;;;4.50;0.90;;;;;;;;;;4940457;28;20518;-77
2022/06/13 12:36:47;;;;;;;5.03;1.05;;;;;;;;;;4957118;28;20047;-75
2022/06/13 12:39:16;;;;;;;5.35;1.05;;;;;;;;;;4973638;28;20042;-80
2022/06/13 12:41:57;;;;;;;6.68;1.70;;;;;;;;;;4956941;28;20408;-84
2022/06/13 12:44:35;;;;;;;4.97;1.17;;;;;;;;;;4973374;28;20487;-81
2022/06/13 12:47:14;;;;;;;8.10;1.50;;;;;;;;;;4972622;28;20495;-82
2022/06/13 12:49:59;;;;;;;7.72;1.60;;;;;;;;;;4955599;28;20035;-76
2022/06/13 12:52:28;;;;;;;5.93;1.27;;;;;;;;;;4955758;28;20122;-84
2022/06/13 12:54:57;;;;;;;4.75;1.20;;;;;;;;;;4939714;28;20406;-83
2022/06/13 12:57:23;;;;;;;6.20;1.25;;;;;;;;;;4939367;28;20049;-79
2022/06/13 13:00:08;;;;;;;8.73;1.40;;;;;;;;;;4954081;28;20169;-79
2022/06/13 13:02:53;;;;;;;6.72;1.35;;;;;;;;;;4954700;28;20046;-82
2022/06/13 13:05:26;;;;;;;3.37;0.93;;;;;;;;;;4952583;28;20059;-80
2022/06/13 13:08:11;;;;;;;7.10;1.25;;;;;;;;;;4954066;28;20313;-74
2022/06/13 13:10:45;;;;;;;6.80;1.10;;;;;;;;;;4956670;28;20097;-74
2022/06/13 13:13:11;;;;;;;5.97;1.23;;;;;;;;;;4957879;28;20035;-73
2022/06/13 13:15:43;;;;;;;5.60;1.50;;;;;;;;;;4957343;28;20045;-81
2022/06/13 13:18:28;;;;;;;4.20;1.10;;;;;;;;;;4958762;28;20038;-80
2022/06/13 13:21:21;;;;;;;7.97;1.30;;;;;;;;;;4959291;28;20058;-81
2022/06/13 13:23:50;;;;;;;7.55;1.52;;;;;;;;;;4947025;28;20083;-84
2022/06/13 13:26:19;;;;;;;6.47;1.20;;;;;;;;;;4959329;28;20047;-83
2022/06/13 13:28:45;;;;;;;5.22;1.30;;;;;;;;;;4958759;28;20109;-81
2022/06/13 13:31:15;;;;;;;7.65;1.45;;;;;;;;;;4943509;28;20042;-79
2022/06/13 13:33:45;;;;;;;6.70;1.40;;;;;;;;;;4958724;28;20046;-77
2022/06/13 13:36:31;;;;;;;5.25;1.50;;;;;;;;;;4943112;28;20035;-79
2022/06/13 13:39:01;;;;;;;6.65;1.50;;;;;;;;;;4938044;28;20101;-79
2022/06/13 13:41:32;;;;;;;7.45;1.55;;;;;;;;;;4958684;28;20127;-79
2022/06/13 13:44:18;;;;;;;8.25;1.50;;;;;;;;;;4946609;28;20042;-78
2022/06/13 13:46:50;;;;;;;8.05;1.45;;;;;;;;;;4953247;28;20051;-73
2022/06/13 13:49:26;;;;;;;6.68;1.60;;;;;;;;;;4958299;28;20090;-76
2022/06/13 13:51:56;;;;;;;5.90;1.70;;;;;;;;;;4958662;28;20054;-75
2022/06/13 13:54:25;;;;;;;4.47;1.23;;;;;;;;;;4958742;28;20125;-74
2022/06/13 13:56:55;;;;;;;6.78;1.58;;;;;;;;;;4957502;28;20042;-74
2022/06/13 13:59:26;;;;;;;7.55;1.58;;;;;;;;;;4942460;28;20395;-77
2022/06/13 14:01:58;;;;;;;4.32;1.10;;;;;;;;;;4957985;28;20042;-76
2022/06/13 14:04:41;;;;;;;5.68;1.30;;;;;;;;;;4947971;28;20050;-75
2022/06/13 14:07:27;;;;;;;6.47;1.10;;;;;;;;;;4942407;28;20050;-75
2022/06/13 14:09:55;;;;;;;5.63;1.33;;;;;;;;;;4935861;28;20066;-75
2022/06/13 14:12:21;;;;;;;8.75;1.50;;;;;;;;;;4958152;28;20039;-79
2022/06/13 14:14:50;;;;;;;6.97;1.23;;;;;;;;;;4922433;29;20479;-76
2022/06/13 14:17:37;;;;;;;9.77;1.10;;;;;;;;;;4936703;28;20039;-79
2022/06/13 14:20:08;;;;;;;4.50;1.27;;;;;;;;;;4940904;28;20575;-78
2022/06/13 14:22:44;;;;;;;4.45;1.27;;;;;;;;;;4958827;28;20050;-77
2022/06/13 14:25:16;;;;;;;6.72;1.20;;;;;;;;;;4959035;28;20035;-78
2022/06/13 14:27:59;;;;;;;6.25;1.27;;;;;;;;;;4942509;28;20053;-78
2022/06/13 14:36:09;;;;;;;4.82;1.50;;;;;;;;;;4949934;28;20515;-76
2022/06/13 14:38:44;;;;;;;4.80;1.30;;;;;;;;;;4957488;28;20070;-77
2022/06/13 14:41:33;;;;;;;5.55;1.23;;;;;;;;;;4957302;28;20034;-75
2022/06/13 14:44:06;;;;;;;4.30;1.13;;;;;;;;;;4939827;29;20043;-76
2022/06/13 14:46:46;;;;;;;5.32;1.25;;;;;;;;;;4956603;28;20043;-75
2022/06/13 14:49:21;;;;;;;7.63;1.25;;;;;;;;;;4938284;28;20073;-75
2022/06/13 14:52:06;;;;;;;8.55;1.50;;;;;;;;;;4951247;28;20039;-75
2022/06/13 14:54:38;;;;;;;5.55;1.38;;;;;;;;;;4954969;28;20403;-76
2022/06/13 14:57:23;;;;;;;4.80;1.13;;;;;;;;;;4956806;28;20491;-76
2022/06/13 15:00:09;;;;;;;7.20;1.40;;;;;;;;;;4956956;28;20047;-76
2022/06/13 15:02:59;;;;;;;6.47;1.15;;;;;;;;;;4955475;28;20053;-76
2022/06/13 15:05:31;;;;;;;6.47;1.10;;;;;;;;;;4952435;29;20063;-75
2022/06/13 15:08:03;;;;;;;5.60;1.40;;;;;;;;;;4959844;28;20063;-77
2022/06/13 15:10:34;;;;;;;6.82;1.30;;;;;;;;;;4952563;29;20130;-75
2022/06/13 15:13:01;;;;;;;8.35;1.40;;;;;;;;;;4953943;28;20054;-77
2022/06/13 15:15:31;;;;;;;4.75;1.48;;;;;;;;;;4932044;28;20517;-75
2022/06/13 15:17:58;;;;;;;7.35;1.42;;;;;;;;;;4950624;29;20039;-75
2022/06/13 15:20:30;;;;;;;5.07;1.17;;;;;;;;;;4936910;29;20047;-77
2022/06/13 15:22:59;;;;;;;4.82;1.30;;;;;;;;;;4953364;29;20123;-76
2022/06/13 15:25:45;;;;;;;5.13;1.40;;;;;;;;;;4937799;29;20039;-75
2022/06/13 15:28:16;;;;;;;9.00;1.77;;;;;;;;;;4952918;29;20046;-76
2022/06/13 15:30:43;;;;;;;7.82;1.63;;;;;;;;;;4953294;28;20122;-78
2022/06/13 15:33:13;;;;;;;8.60;1.55;;;;;;;;;;4956766;29;20035;-78
2022/06/13 15:35:48;;;;;;;6.82;1.52;;;;;;;;;;4946360;29;20074;-77